createdAt,value
2018-04-15T00:00:27.949Z,"    0"
2018-04-15T00:05:22.637Z,"    0"
2018-04-15T00:10:22.552Z,"    0"
2018-04-15T00:15:21.433Z,"    0"
2018-04-15T00:20:16.433Z,"    0"
2018-04-15T00:25:16.155Z,"    0"
2018-04-15T00:30:12.191Z,"    0"
2018-04-15T00:35:08.671Z,"    0"
2018-04-15T00:40:04.275Z,"    0"
2018-04-15T00:45:01.137Z,"    0"
2018-04-15T00:50:01.779Z,"    0"
2018-04-15T00:55:01.298Z,"    0"
2018-04-15T00:59:56.999Z,"    0"
2018-04-15T01:04:57.064Z,"    0"
2018-04-15T01:09:54.537Z,"    0"
2018-04-15T01:14:51.178Z,"    0"
2018-04-15T01:19:46.843Z,"    0"
2018-04-15T01:24:43.793Z,"    0"
2018-04-15T01:29:44.978Z,"    0"
2018-04-15T01:34:44.746Z,"    0"
2018-04-15T01:39:40.544Z,"    0"
2018-04-15T01:44:41.568Z,"    0"
2018-04-15T01:49:37.728Z,"    0"
2018-04-15T01:54:37.447Z,"    0"
2018-04-15T01:59:32.068Z,"    0"
2018-04-15T02:04:31.628Z,"    0"
2018-04-15T02:09:26.850Z,"    0"
2018-04-15T02:14:22.690Z,"    0"
2018-04-15T02:19:20.192Z,"    0"
2018-04-15T02:24:16.814Z,"    0"
2018-04-15T02:29:18.018Z,"    0"
2018-04-15T02:34:17.295Z,"    0"
2018-04-15T02:39:16.976Z,"    0"
2018-04-15T02:44:13.476Z,"    0"
2018-04-15T02:49:13.647Z,"    0"
2018-04-15T02:54:14.319Z,"    0"
2018-04-15T02:59:12.679Z,"    0"
2018-04-15T03:04:13.524Z,"    0"
2018-04-15T03:09:08.903Z,"    0"
2018-04-15T03:14:04.550Z,"    0"
2018-04-15T03:19:05.486Z,"    0"
2018-04-15T03:24:01.424Z,"    0"
2018-04-15T03:28:58.321Z,"    0"
2018-04-15T03:33:58.077Z,"    0"
2018-04-15T03:38:54.683Z,"    0"
2018-04-15T03:43:51.203Z,"    0"
2018-04-15T03:48:52.827Z,"    0"
2018-04-15T03:53:48.676Z,"    0"
2018-04-15T03:58:49.973Z,"    0"
2018-04-15T04:03:49.777Z,"    0"
2018-04-15T04:08:48.852Z,"    0"
2018-04-15T04:13:46.489Z,"    4"
2018-04-15T04:18:41.893Z,"    4"
2018-04-15T04:23:43.858Z,"    4"
2018-04-15T04:28:43.659Z,"    8"
2018-04-15T04:33:38.344Z,"   16"
2018-04-15T04:38:33.972Z,"   24"
2018-04-15T04:43:30.209Z,"   32"
2018-04-15T04:48:25.818Z,"   44"
2018-04-15T04:53:22.722Z,"   72"
2018-04-15T04:58:19.579Z,"   92"
2018-04-15T05:03:15.104Z,"  140"
2018-04-15T05:08:11.628Z,"  180"
2018-04-15T05:13:08.558Z,"  224"
2018-04-15T05:18:04.168Z,"  284"
2018-04-15T05:22:59.792Z,"  312"
2018-04-15T05:27:55.887Z,"  300"
2018-04-15T05:32:52.714Z,"  248"
2018-04-15T05:37:52.242Z,"  248"
2018-04-15T05:42:47.581Z,"  244"
2018-04-15T05:47:43.421Z,"  272"
2018-04-15T05:52:40.271Z,"  324"
2018-04-15T05:57:42.371Z,"  720"
2018-04-15T06:02:37.042Z,"  804"
2018-04-15T06:07:34.193Z,"  812"
2018-04-15T06:12:31.206Z,"  636"
2018-04-15T06:17:31.963Z,"  472"
2018-04-15T06:22:31.738Z," 1320"
2018-04-15T06:27:26.905Z,"  932"
2018-04-15T06:32:23.599Z," 1328"
2018-04-15T06:37:24.392Z," 1420"
2018-04-15T06:42:20.091Z," 1736"
2018-04-15T06:47:19.747Z," 1804"
2018-04-15T06:52:16.804Z," 1856"
2018-04-15T06:57:12.239Z," 1896"
2018-04-15T07:02:09.288Z," 2012"
2018-04-15T07:07:08.801Z," 2656"
2018-04-15T07:12:09.790Z," 2688"
2018-04-15T07:17:09.472Z," 2804"
2018-04-15T07:22:04.783Z," 3468"
2018-04-15T07:27:04.631Z," 4612"
2018-04-15T07:31:59.609Z," 4184"
2018-04-15T07:36:56.588Z," 4668"
2018-04-15T07:41:54.769Z," 6408"
2018-04-15T07:46:54.360Z," 5732"
2018-04-15T07:51:50.468Z," 5640"
2018-04-15T07:56:50.211Z," 6288"
2018-04-15T08:01:44.989Z," 7340"
2018-04-15T08:06:42.024Z," 8664"
2018-04-15T08:11:37.911Z," 8456"
2018-04-15T08:16:34.645Z,17440
2018-04-15T08:21:32.431Z,56448
2018-04-15T08:26:29.888Z,21248
2018-04-15T08:31:26.979Z,22464
2018-04-15T08:36:29.381Z,17824
2018-04-15T08:41:29.089Z,14068
2018-04-15T08:46:23.727Z,19040
2018-04-15T08:51:24.988Z,14372
2018-04-15T08:56:20.209Z,12684
2018-04-15T09:01:16.093Z,13880
2018-04-15T09:06:11.746Z,20032
2018-04-15T09:11:11.754Z,18560
2018-04-15T09:16:07.145Z,30944
2018-04-15T09:21:05.153Z,24672
2018-04-15T09:26:01.541Z,19808
2018-04-15T09:30:58.865Z,14548
2018-04-15T09:35:57.836Z,14984
2018-04-15T09:40:52.670Z,19680
2018-04-15T09:45:52.686Z,25152
2018-04-15T09:50:48.594Z,13732
2018-04-15T09:55:46.864Z,18336
2018-04-15T10:00:43.408Z,16736
2018-04-15T10:05:43.021Z,28416
2018-04-15T10:10:40.185Z,11736
2018-04-15T10:15:41.374Z,76224
2018-04-15T10:20:41.105Z,18304
2018-04-15T10:25:40.693Z,86272
2018-04-15T10:30:39.284Z,84320
2018-04-15T10:35:37.389Z,24864
2018-04-15T10:40:37.508Z,11064
2018-04-15T10:45:35.055Z,12420
2018-04-15T10:50:31.406Z,13680
2018-04-15T10:55:27.411Z,56704
2018-04-15T11:00:30.061Z,68608
2018-04-15T11:05:25.339Z,71360
2018-04-15T11:10:22.926Z,63840
2018-04-15T11:15:24.484Z,61376
2018-04-15T11:20:26.314Z,83936
2018-04-15T11:25:25.745Z,71648
2018-04-15T11:30:20.611Z,63264
2018-04-15T11:35:19.493Z,83008
2018-04-15T11:40:18.092Z,76896
2018-04-15T11:45:18.901Z,77216
2018-04-15T11:50:14.960Z,58656
2018-04-15T11:55:11.409Z,53408
2018-04-15T12:00:11.577Z,52864
2018-04-15T12:05:06.643Z,10672
2018-04-15T12:10:05.953Z,26624
2018-04-15T12:15:03.891Z,10880
2018-04-15T12:19:57.802Z,12640
2018-04-15T12:24:56.885Z,10644
2018-04-15T12:29:55.372Z,17472
2018-04-15T12:34:50.341Z,20544
2018-04-15T12:39:46.210Z," 9776"
2018-04-15T12:44:42.688Z,10292
2018-04-15T12:49:38.326Z,31968
2018-04-15T12:54:38.353Z,12004
2018-04-15T12:59:37.856Z," 9304"
2018-04-15T13:04:36.943Z,17664
2018-04-15T13:09:37.266Z,24448
2018-04-15T13:19:39.889Z,10924
2018-04-15T13:24:39.275Z," 9168"
2018-04-15T13:29:39.071Z,25600
2018-04-15T13:34:33.638Z,10196
2018-04-15T13:39:30.674Z,11200
2018-04-15T13:44:33.044Z,12052
2018-04-15T13:49:28.078Z," 9056"
2018-04-15T13:54:24.029Z," 6376"
2018-04-15T13:59:24.443Z," 8444"
2018-04-15T14:04:19.915Z," 6732"
2018-04-15T14:09:17.668Z," 6504"
2018-04-15T14:14:18.471Z," 6908"
2018-04-15T14:19:27.135Z," 9248"
2018-04-15T14:24:28.897Z," 8764"
2018-04-15T14:29:23.612Z," 6912"
2018-04-15T14:34:20.724Z," 4816"
2018-04-15T14:39:15.746Z," 5608"
2018-04-15T14:44:11.448Z," 5468"
2018-04-15T14:49:11.395Z," 5968"
2018-04-15T14:54:11.274Z," 5548"
2018-04-15T14:59:07.144Z," 5132"
2018-04-15T15:04:03.755Z," 3664"
2018-04-15T15:08:59.146Z," 2968"
2018-04-15T15:13:56.053Z," 2744"
2018-04-15T15:18:52.416Z," 2620"
2018-04-15T15:23:47.974Z," 2524"
2018-04-15T15:28:43.753Z," 2904"
2018-04-15T15:33:44.375Z," 3144"
2018-04-15T15:38:39.193Z," 3160"
2018-04-15T15:43:38.763Z," 3148"
2018-04-15T15:48:33.892Z," 2988"
2018-04-15T15:53:29.433Z," 2824"
2018-04-15T15:58:29.542Z," 2652"
2018-04-15T16:03:25.447Z," 2700"
2018-04-15T16:08:27.039Z," 3404"
2018-04-15T16:13:21.979Z," 3900"
2018-04-15T16:18:21.698Z," 4384"
2018-04-15T16:23:18.358Z," 4024"
2018-04-15T16:28:18.881Z," 3932"
2018-04-15T16:33:17.508Z," 3852"
2018-04-15T16:38:13.384Z," 3756"
2018-04-15T16:43:09.331Z," 3648"
2018-04-15T16:48:10.325Z," 3420"
2018-04-15T16:53:06.162Z," 3040"
2018-04-15T16:58:02.529Z," 2768"
2018-04-15T17:02:58.361Z," 2516"
2018-04-15T17:07:58.181Z," 2268"
2018-04-15T17:12:57.187Z," 2064"
2018-04-15T17:17:56.945Z," 1852"
2018-04-15T17:22:56.560Z," 1648"
2018-04-15T17:27:51.202Z," 1424"
2018-04-15T17:32:51.274Z," 1264"
2018-04-15T17:37:46.160Z," 1084"
2018-04-15T17:42:43.271Z,"  864"
2018-04-15T17:47:38.585Z,"  688"
2018-04-15T17:52:39.415Z,"  568"
2018-04-15T17:57:39.052Z,"  484"
2018-04-15T18:02:34.356Z,"  380"
2018-04-15T18:07:29.934Z,"  300"
2018-04-15T18:12:31.747Z,"  244"
2018-04-15T18:17:27.190Z,"  188"
2018-04-15T18:22:23.283Z,"  132"
2018-04-15T18:27:24.966Z,"   88"
2018-04-15T18:32:19.596Z,"   56"
2018-04-15T18:37:15.238Z,"   28"
2018-04-15T18:42:14.545Z,"   16"
2018-04-15T18:47:09.467Z,"    8"
2018-04-15T18:52:09.136Z,"    4"
2018-04-15T18:57:07.854Z,"    0"
2018-04-15T19:02:06.943Z,"    0"
2018-04-15T19:07:01.620Z,"    0"
2018-04-15T19:11:58.079Z,"    0"
2018-04-15T19:16:54.573Z,"    0"
2018-04-15T19:21:54.745Z,"    0"
2018-04-15T19:26:50.040Z,"    0"
2018-04-15T19:31:50.295Z,"    0"
2018-04-15T19:36:46.443Z,"    0"
2018-04-15T19:41:46.756Z,"    0"
2018-04-15T19:46:46.330Z,"    0"
2018-04-15T19:51:45.144Z,"    0"
2018-04-15T19:56:45.373Z,"    0"
2018-04-15T20:01:46.079Z,"    0"
2018-04-15T20:06:45.681Z,"    0"
2018-04-15T20:11:44.241Z,"    0"
2018-04-15T20:16:40.684Z,"    0"
2018-04-15T20:21:40.060Z,"    0"
2018-04-15T20:26:40.606Z,"    0"
2018-04-15T20:31:35.342Z,"    0"
2018-04-15T20:36:34.938Z,"    0"
2018-04-15T20:41:31.011Z,"    0"
2018-04-15T20:46:31.668Z,"    0"
2018-04-15T20:51:26.577Z,"    0"
2018-04-15T20:56:26.786Z,"    0"
2018-04-15T21:01:27.844Z,"    0"
2018-04-15T21:06:24.227Z,"    0"
2018-04-15T21:11:24.701Z,"    0"
2018-04-15T21:16:24.445Z,"    0"
2018-04-15T21:21:24.501Z,"    0"
2018-04-15T21:26:24.395Z,"    0"
2018-04-15T21:31:22.969Z,"    0"
2018-04-15T21:36:22.986Z,"    0"
2018-04-15T21:41:17.836Z,"    0"
2018-04-15T21:46:17.710Z,"    0"
2018-04-15T21:51:16.630Z,"    0"
2018-04-15T21:56:16.575Z,"    0"
2018-04-15T22:01:12.560Z,"    0"
2018-04-15T22:06:08.461Z,"    0"
2018-04-15T22:11:08.354Z,"    0"
2018-04-15T22:16:08.243Z,"    0"
2018-04-15T22:21:03.524Z,"    0"
2018-04-15T22:26:03.186Z,"    0"
2018-04-15T22:30:59.184Z,"    0"
2018-04-15T22:36:00.039Z,"    0"
2018-04-15T22:41:00.709Z,"    0"
2018-04-15T22:45:56.593Z,"    0"
2018-04-15T22:50:52.851Z,"    0"
2018-04-15T22:55:52.735Z,"    0"
2018-04-15T23:00:52.835Z,"    0"
2018-04-15T23:05:53.253Z,"    0"
2018-04-15T23:10:52.976Z,"    0"
2018-04-15T23:15:53.491Z,"    0"
2018-04-15T23:20:51.749Z,"    0"
2018-04-15T23:25:51.039Z,"    0"
2018-04-15T23:30:46.725Z,"    0"
2018-04-15T23:35:47.748Z,"    0"
2018-04-15T23:40:46.641Z,"    0"
2018-04-15T23:45:42.286Z,"    0"
2018-04-15T23:50:41.684Z,"    0"
2018-04-15T23:55:43.776Z,"    0"
